createdAt,value
2019-01-02T00:00:53.700Z,5.90
2019-01-02T00:01:58.811Z,5.80
2019-01-02T00:03:04.277Z,5.80
2019-01-02T00:04:12.149Z,5.80
2019-01-02T00:05:17.183Z,5.80
2019-01-02T00:06:22.297Z,5.70
2019-01-02T00:07:27.813Z,5.70
2019-01-02T00:08:32.970Z,5.70
2019-01-02T00:09:38.180Z,5.70
2019-01-02T00:10:44.699Z,5.70
2019-01-02T00:11:49.731Z,5.70
2019-01-02T00:12:54.775Z,5.70
2019-01-02T00:14:00.287Z,5.70
2019-01-02T00:15:05.623Z,5.70
2019-01-02T00:16:10.719Z,5.70
2019-01-02T00:17:16.196Z,5.70
2019-01-02T00:18:21.308Z,5.70
2019-01-02T00:19:26.602Z,5.70
2019-01-02T00:20:32.192Z,5.70
2019-01-02T00:21:37.247Z,5.70
2019-01-02T00:22:42.333Z,5.70
2019-01-02T00:23:47.457Z,5.70
2019-01-02T00:24:52.858Z,5.70
2019-01-02T00:25:59.172Z,5.60
2019-01-02T00:27:04.323Z,5.50
2019-01-02T00:28:09.675Z,5.50
2019-01-02T00:29:14.775Z,5.50
2019-01-02T00:30:19.876Z,5.40
2019-01-02T00:31:25.073Z,5.40
2019-01-02T00:32:30.168Z,5.40
2019-01-02T00:33:35.315Z,5.40
2019-01-02T00:34:40.710Z,5.40
2019-01-02T00:35:45.872Z,5.40
2019-01-02T00:36:51.941Z,5.30
2019-01-02T00:37:57.272Z,5.30
2019-01-02T00:39:02.408Z,5.40
2019-01-02T00:40:09.978Z,5.40
2019-01-02T00:41:15.456Z,5.40
2019-01-02T00:42:20.575Z,5.30
2019-01-02T00:43:25.802Z,5.40
2019-01-02T00:44:31.333Z,5.30
2019-01-02T00:45:36.500Z,5.30
2019-01-02T00:46:41.582Z,5.40
2019-01-02T00:47:48.034Z,5.40
2019-01-02T00:48:53.165Z,5.40
2019-01-02T00:49:58.301Z,5.40
2019-01-02T00:51:03.941Z,5.50
2019-01-02T00:52:09.028Z,5.50
2019-01-02T00:53:14.074Z,5.50
2019-01-02T00:54:19.737Z,5.50
2019-01-02T00:55:25.049Z,5.50
2019-01-02T00:56:30.119Z,5.50
2019-01-02T00:57:35.628Z,5.60
2019-01-02T00:58:40.673Z,5.60
2019-01-02T00:59:45.836Z,5.60
2019-01-02T01:00:51.217Z,5.60
2019-01-02T01:01:56.381Z,5.60
2019-01-02T01:03:01.855Z,5.60
2019-01-02T01:04:07.080Z,5.60
2019-01-02T01:05:12.202Z,5.60
2019-01-02T01:06:17.823Z,5.60
2019-01-02T01:07:22.984Z,5.60
2019-01-02T01:08:28.148Z,5.50
2019-01-02T01:09:33.624Z,5.50
2019-01-02T01:10:38.756Z,5.50
2019-01-02T01:11:43.937Z,5.40
2019-01-02T01:12:49.280Z,5.40
2019-01-02T01:13:54.399Z,5.40
2019-01-02T01:14:59.492Z,5.40
2019-01-02T01:16:05.025Z,5.40
2019-01-02T01:17:10.125Z,5.40
2019-01-02T01:18:15.313Z,5.50
2019-01-02T01:19:20.846Z,5.40
2019-01-02T01:20:26.003Z,5.40
2019-01-02T01:21:31.103Z,5.40
2019-01-02T01:22:36.588Z,5.40
2019-01-02T01:23:41.687Z,5.40
2019-01-02T01:24:46.741Z,5.40
2019-01-02T01:25:52.325Z,5.40
2019-01-02T01:26:57.366Z,5.40
2019-01-02T01:28:02.394Z,5.40
2019-01-02T01:29:07.486Z,5.30
2019-01-02T01:30:12.918Z,5.30
2019-01-02T01:31:17.948Z,5.30
2019-01-02T01:32:23.110Z,5.30
2019-01-02T01:33:28.643Z,5.30
2019-01-02T01:34:33.751Z,5.30
2019-01-02T01:35:38.817Z,5.30
2019-01-02T01:36:43.828Z,5.30
2019-01-02T01:37:54.566Z,5.30
2019-01-02T01:38:59.850Z,5.30
2019-01-02T01:40:05.472Z,5.30
2019-01-02T01:41:10.581Z,5.30
2019-01-02T01:42:16.053Z,5.20
2019-01-02T01:43:21.139Z,5.20
2019-01-02T01:44:27.242Z,5.10
2019-01-02T01:45:32.669Z,5.10
2019-01-02T01:46:37.769Z,5.00
2019-01-02T01:47:42.956Z,5.00
2019-01-02T01:48:48.261Z,5.00
2019-01-02T01:49:53.359Z,4.90
2019-01-02T01:50:58.457Z,4.90
2019-01-02T01:52:03.610Z,4.80
2019-01-02T01:53:09.302Z,4.80
2019-01-02T01:54:14.606Z,4.80
2019-01-02T01:55:20.022Z,4.80
2019-01-02T01:56:25.668Z,4.80
2019-01-02T01:57:30.826Z,4.80
2019-01-02T01:58:36.048Z,4.80
2019-01-02T01:59:41.627Z,4.80
2019-01-02T02:00:46.777Z,4.80
2019-01-02T02:01:51.888Z,4.80
2019-01-02T02:02:58.148Z,4.80
2019-01-02T02:04:03.377Z,4.90
2019-01-02T02:05:08.984Z,4.90
2019-01-02T02:06:14.591Z,4.90
2019-01-02T02:07:19.992Z,4.90
2019-01-02T02:08:25.164Z,4.90
2019-01-02T02:09:30.325Z,5.00
2019-01-02T02:10:35.508Z,5.00
2019-01-02T02:11:40.902Z,5.00
2019-01-02T02:12:45.927Z,5.10
2019-01-02T02:13:51.267Z,5.10
2019-01-02T02:14:57.075Z,5.10
2019-01-02T02:16:03.268Z,5.10
2019-01-02T02:17:08.395Z,5.10
2019-01-02T02:18:13.532Z,5.20
2019-01-02T02:19:19.192Z,5.20
2019-01-02T02:20:24.306Z,5.20
2019-01-02T02:21:29.877Z,5.20
2019-01-02T02:22:35.477Z,5.20
2019-01-02T02:23:40.680Z,5.20
2019-01-02T02:24:45.908Z,5.20
2019-01-02T02:25:51.787Z,5.20
2019-01-02T02:26:56.996Z,5.30
2019-01-02T02:28:02.260Z,5.20
2019-01-02T02:29:10.564Z,5.20
2019-01-02T02:30:16.058Z,5.20
2019-01-02T02:31:21.437Z,5.20
2019-01-02T02:32:26.911Z,5.30
2019-01-02T02:33:31.941Z,5.20
2019-01-02T02:34:37.432Z,5.20
2019-01-02T02:35:42.546Z,5.20
2019-01-02T02:36:47.941Z,5.20
2019-01-02T02:37:53.410Z,5.30
2019-01-02T02:38:58.420Z,5.30
2019-01-02T02:40:04.098Z,5.30
2019-01-02T02:41:10.394Z,5.30
2019-01-02T02:42:15.861Z,5.30
2019-01-02T02:43:21.233Z,5.40
2019-01-02T02:44:26.332Z,5.40
2019-01-02T02:45:31.713Z,5.40
2019-01-02T02:46:37.284Z,5.40
2019-01-02T02:47:42.291Z,5.40
2019-01-02T02:48:47.697Z,5.30
2019-01-02T02:49:53.361Z,5.30
2019-01-02T02:50:58.466Z,5.30
2019-01-02T02:52:03.888Z,5.40
2019-01-02T02:53:08.959Z,5.40
2019-01-02T02:54:14.370Z,5.30
2019-01-02T02:55:22.557Z,5.40
2019-01-02T02:56:27.586Z,5.40
2019-01-02T02:57:33.037Z,5.40
2019-01-02T02:58:38.085Z,5.50
2019-01-02T02:59:43.433Z,5.50
2019-01-02T03:00:48.432Z,5.50
2019-01-02T03:01:53.829Z,5.50
2019-01-02T03:02:59.393Z,5.50
2019-01-02T03:04:04.543Z,5.50
2019-01-02T03:05:11.359Z,5.50
2019-01-02T03:06:16.793Z,5.50
2019-01-02T03:07:21.873Z,5.50
2019-01-02T03:08:27.361Z,5.50
2019-01-02T03:09:32.900Z,5.50
2019-01-02T03:10:38.016Z,5.50
2019-01-02T03:11:43.472Z,5.40
2019-01-02T03:12:48.488Z,5.40
2019-01-02T03:13:54.025Z,5.30
2019-01-02T03:14:59.717Z,5.30
2019-01-02T03:16:05.136Z,5.30
2019-01-02T03:17:10.517Z,5.30
2019-01-02T03:18:15.994Z,5.30
2019-01-02T03:19:20.989Z,5.20
2019-01-02T03:20:26.552Z,5.20
2019-01-02T03:21:43.247Z,5.10
2019-01-02T03:22:48.596Z,5.10
2019-01-02T03:23:53.968Z,5.10
2019-01-02T03:24:59.041Z,5.00
2019-01-02T03:26:04.529Z,5.00
2019-01-02T03:27:09.951Z,5.00
2019-01-02T03:28:26.389Z,4.90
2019-01-02T03:29:42.985Z,4.90
2019-01-02T03:30:59.739Z,4.80
2019-01-02T03:32:16.472Z,4.90
2019-01-02T03:33:37.133Z,4.80
2019-01-02T03:34:53.628Z,4.70
2019-01-02T03:36:10.289Z,4.60
2019-01-02T03:37:27.333Z,4.60
2019-01-02T03:38:43.948Z,4.60
2019-01-02T03:40:00.253Z,4.50
2019-01-02T03:41:16.698Z,4.50
2019-01-02T03:42:34.222Z,4.40
2019-01-02T03:43:50.705Z,4.40
2019-01-02T03:45:08.002Z,4.40
2019-01-02T03:46:24.497Z,4.40
2019-01-02T03:47:40.965Z,4.40
2019-01-02T03:48:57.907Z,4.30
2019-01-02T03:50:15.145Z,4.40
2019-01-02T03:51:31.734Z,4.40
2019-01-02T03:52:48.101Z,4.30
2019-01-02T03:54:04.765Z,4.40
2019-01-02T03:55:21.383Z,4.40
2019-01-02T03:56:37.699Z,4.40
2019-01-02T03:57:54.107Z,4.40
2019-01-02T03:59:10.769Z,4.30
2019-01-02T04:00:27.144Z,4.30
2019-01-02T04:01:43.385Z,4.40
2019-01-02T04:02:59.675Z,4.30
2019-01-02T04:04:16.435Z,4.40
2019-01-02T04:05:32.833Z,4.40
2019-01-02T04:06:49.132Z,4.40
2019-01-02T04:08:05.903Z,4.40
2019-01-02T04:09:22.809Z,4.40
2019-01-02T04:10:39.408Z,4.40
2019-01-02T04:11:56.213Z,4.50
2019-01-02T04:13:12.743Z,4.50
2019-01-02T04:14:29.952Z,4.50
2019-01-02T04:15:46.533Z,4.50
2019-01-02T04:17:03.031Z,4.50
2019-01-02T04:18:19.559Z,4.60
2019-01-02T04:19:36.014Z,4.60
2019-01-02T04:20:52.508Z,4.60
2019-01-02T04:22:09.089Z,4.50
2019-01-02T04:23:26.328Z,4.50
2019-01-02T04:24:42.696Z,4.50
2019-01-02T04:25:59.158Z,4.60
2019-01-02T04:27:15.604Z,4.60
2019-01-02T04:28:31.961Z,4.60
2019-01-02T04:29:48.396Z,4.60
2019-01-02T04:31:05.003Z,4.60
2019-01-02T04:32:21.480Z,4.60
2019-01-02T04:33:37.897Z,4.60
2019-01-02T04:34:54.236Z,4.70
2019-01-02T04:36:10.832Z,4.70
2019-01-02T04:37:27.333Z,4.70
2019-01-02T04:38:44.192Z,4.70
2019-01-02T04:40:00.804Z,4.70
2019-01-02T04:41:17.260Z,4.70
2019-01-02T04:42:33.965Z,4.70
2019-01-02T04:43:50.790Z,4.70
2019-01-02T04:45:07.332Z,4.80
2019-01-02T04:46:23.889Z,4.80
2019-01-02T04:47:40.432Z,4.80
2019-01-02T04:48:57.602Z,4.70
2019-01-02T04:50:14.225Z,4.80
2019-01-02T04:51:30.681Z,4.80
2019-01-02T04:52:47.053Z,4.80
2019-01-02T04:54:03.495Z,4.80
2019-01-02T04:55:19.913Z,4.90
2019-01-02T04:56:36.396Z,4.90
2019-01-02T04:57:53.069Z,4.90
2019-01-02T04:59:09.338Z,4.90
2019-01-02T05:00:26.013Z,4.90
2019-01-02T05:01:42.826Z,4.90
2019-01-02T05:02:59.796Z,4.90
2019-01-02T05:04:16.441Z,4.90
2019-01-02T05:05:33.141Z,4.90
2019-01-02T05:06:48.436Z,5.00
2019-01-02T05:08:05.288Z,5.00
2019-01-02T05:09:22.146Z,5.00
2019-01-02T05:10:38.676Z,5.00
2019-01-02T05:11:55.274Z,5.00
2019-01-02T05:13:11.550Z,5.00
2019-01-02T05:14:28.245Z,5.00
2019-01-02T05:15:45.231Z,5.00
2019-01-02T05:17:01.983Z,5.00
2019-01-02T05:18:18.302Z,5.00
2019-01-02T05:19:35.536Z,5.00
2019-01-02T05:20:52.013Z,5.00
2019-01-02T05:22:08.289Z,5.00
2019-01-02T05:23:24.708Z,5.00
2019-01-02T05:24:42.201Z,5.00
2019-01-02T05:25:58.745Z,5.00
2019-01-02T05:27:15.509Z,5.00
2019-01-02T05:28:32.038Z,5.00
2019-01-02T05:29:50.163Z,5.00
2019-01-02T05:31:07.430Z,4.90
2019-01-02T05:32:23.686Z,5.00
2019-01-02T05:33:40.584Z,5.00
2019-01-02T05:34:56.949Z,5.00
2019-01-02T05:36:13.571Z,5.00
2019-01-02T05:37:30.674Z,5.00
2019-01-02T05:38:47.802Z,5.00
2019-01-02T05:40:04.128Z,5.00
2019-01-02T05:41:20.756Z,5.00
2019-01-02T05:42:37.228Z,5.00
2019-01-02T05:43:53.602Z,4.90
2019-01-02T05:45:09.851Z,4.90
2019-01-02T05:46:26.218Z,4.90
2019-01-02T05:47:42.601Z,4.90
2019-01-02T05:48:59.619Z,4.90
2019-01-02T05:50:16.809Z,4.80
2019-01-02T05:51:33.825Z,4.80
2019-01-02T05:52:50.136Z,4.80
2019-01-02T05:54:06.925Z,4.80
2019-01-02T05:55:24.025Z,4.80
2019-01-02T05:56:40.501Z,4.80
2019-01-02T05:57:57.139Z,4.80
2019-01-02T05:59:14.381Z,4.80
2019-01-02T06:00:31.461Z,4.80
2019-01-02T06:01:48.056Z,4.80
2019-01-02T06:03:04.444Z,4.80
2019-01-02T06:04:21.145Z,4.80
2019-01-02T06:05:37.869Z,4.80
2019-01-02T06:06:54.260Z,4.80
2019-01-02T06:08:11.102Z,4.80
2019-01-02T06:09:27.673Z,4.80
2019-01-02T06:10:44.117Z,4.80
2019-01-02T06:12:01.016Z,4.80
2019-01-02T06:13:17.269Z,4.80
2019-01-02T06:14:33.908Z,4.80
2019-01-02T06:15:51.108Z,4.80
2019-01-02T06:17:07.597Z,4.80
2019-01-02T06:18:24.005Z,4.80
2019-01-02T06:19:41.084Z,4.80
2019-01-02T06:20:58.188Z,4.80
2019-01-02T06:22:15.080Z,4.80
2019-01-02T06:23:31.662Z,4.80
2019-01-02T06:24:48.153Z,4.80
2019-01-02T06:26:04.750Z,4.80
2019-01-02T06:27:21.153Z,4.80
2019-01-02T06:28:38.281Z,4.80
2019-01-02T06:29:54.799Z,4.80
2019-01-02T06:31:11.251Z,4.80
2019-01-02T06:32:27.810Z,4.80
2019-01-02T06:33:44.644Z,4.80
2019-01-02T06:35:01.863Z,4.80
2019-01-02T06:36:18.628Z,4.80
2019-01-02T06:37:33.845Z,4.70
2019-01-02T06:40:40.721Z,4.80
2019-01-02T06:41:57.179Z,4.80
2019-01-02T06:43:13.783Z,4.80
2019-01-02T06:44:30.203Z,4.80
2019-01-02T06:45:46.938Z,4.70
2019-01-02T06:47:03.366Z,4.80
2019-01-02T06:48:20.082Z,4.80
2019-01-02T06:49:36.556Z,4.80
2019-01-02T06:50:53.165Z,4.80
2019-01-02T06:52:10.381Z,4.80
2019-01-02T06:53:26.864Z,4.90
2019-01-02T06:54:43.212Z,4.90
2019-01-02T06:56:00.138Z,4.80
2019-01-02T06:57:16.566Z,4.70
2019-01-02T06:58:33.579Z,4.80
2019-01-02T06:59:49.914Z,4.80
2019-01-02T07:01:06.750Z,4.80
2019-01-02T07:02:23.216Z,4.80
2019-01-02T07:03:40.367Z,4.80
2019-01-02T07:04:56.931Z,4.80
2019-01-02T07:06:13.204Z,4.90
2019-01-02T07:07:31.300Z,4.90
2019-01-02T07:08:48.449Z,4.90
2019-01-02T07:10:05.197Z,4.90
2019-01-02T07:11:22.203Z,4.90
2019-01-02T07:12:38.670Z,4.90
2019-01-02T07:13:55.439Z,4.90
2019-01-02T07:15:12.493Z,4.90
2019-01-02T07:16:28.833Z,4.90
2019-01-02T07:17:46.005Z,4.90
2019-01-02T07:19:03.171Z,4.90
2019-01-02T07:20:19.740Z,4.90
2019-01-02T07:21:36.810Z,4.90
2019-01-02T07:22:54.885Z,4.90
2019-01-02T07:24:10.137Z,4.90
2019-01-02T07:25:34.228Z,4.90
2019-01-02T07:26:50.668Z,4.90
2019-01-02T07:28:07.191Z,4.90
2019-01-02T07:29:23.673Z,4.90
2019-01-02T07:30:40.335Z,4.90
2019-01-02T07:31:56.953Z,4.90
2019-01-02T07:33:13.760Z,4.90
2019-01-02T07:34:30.948Z,4.90
2019-01-02T07:35:47.498Z,4.90
2019-01-02T07:39:05.237Z,4.90
2019-01-02T07:40:45.393Z,5.00
2019-01-02T07:42:28.528Z,5.00
2019-01-02T07:43:45.326Z,5.00
2019-01-02T07:45:02.497Z,5.00
2019-01-02T07:46:39.101Z,5.00
2019-01-02T07:48:22.356Z,5.00
2019-01-02T07:49:38.805Z,5.00
2019-01-02T07:51:00.235Z,4.90
2019-01-02T07:52:13.445Z,4.90
2019-01-02T07:53:29.774Z,4.90
2019-01-02T07:54:46.553Z,4.90
2019-01-02T07:56:03.816Z,4.90
2019-01-02T07:57:20.604Z,4.90
2019-01-02T07:58:36.885Z,4.90
2019-01-02T07:59:53.457Z,5.00
2019-01-02T08:01:10.657Z,5.10
2019-01-02T08:02:27.069Z,5.10
2019-01-02T08:03:44.148Z,5.10
2019-01-02T08:05:00.624Z,5.10
2019-01-02T08:06:16.888Z,5.20
2019-01-02T08:07:33.678Z,5.20
2019-01-02T08:08:50.277Z,5.20
2019-01-02T08:10:06.609Z,5.20
2019-01-02T08:11:22.996Z,5.20
2019-01-02T08:12:39.900Z,5.20
2019-01-02T08:13:56.765Z,5.20
2019-01-02T08:15:13.240Z,5.20
2019-01-02T08:16:31.477Z,5.30
2019-01-02T08:17:48.006Z,5.30
2019-01-02T08:19:04.640Z,5.30
2019-01-02T08:20:21.325Z,5.30
2019-01-02T08:21:37.942Z,5.30
2019-01-02T08:22:55.271Z,5.30
2019-01-02T08:24:11.577Z,5.30
2019-01-02T08:25:28.116Z,5.20
2019-01-02T08:26:45.364Z,5.20
2019-01-02T08:28:19.668Z,5.20
2019-01-02T08:29:47.506Z,5.20
2019-01-02T08:31:04.044Z,5.10
2019-01-02T08:32:20.653Z,5.10
2019-01-02T08:33:37.160Z,5.10
2019-01-02T08:35:14.684Z,5.20
2019-01-02T08:36:31.024Z,5.20
2019-01-02T08:37:48.131Z,5.30
2019-01-02T08:39:04.952Z,5.40
2019-01-02T08:40:21.445Z,5.40
2019-01-02T08:41:38.545Z,5.40
2019-01-02T08:42:55.452Z,5.50
2019-01-02T08:44:11.809Z,5.90
2019-01-02T08:45:28.416Z,6.40
2019-01-02T08:46:44.782Z,6.90
2019-01-02T08:48:01.127Z,7.30
2019-01-02T08:49:18.050Z,7.70
2019-01-02T08:50:35.141Z,8.00
2019-01-02T08:51:51.545Z,8.20
2019-01-02T08:53:08.266Z,8.20
2019-01-02T08:54:24.922Z,8.50
2019-01-02T08:55:41.270Z,8.70
2019-01-02T08:56:57.724Z,8.80
2019-01-02T08:58:14.612Z,8.80
2019-01-02T08:59:31.182Z,8.80
2019-01-02T09:00:47.633Z,8.80
2019-01-02T09:02:04.429Z,8.80
2019-01-02T09:03:20.708Z,8.90
2019-01-02T09:04:37.286Z,8.80
2019-01-02T09:05:53.720Z,8.70
2019-01-02T09:07:10.216Z,8.70
2019-01-02T09:08:26.659Z,8.60
2019-01-02T09:09:43.620Z,8.50
2019-01-02T09:11:00.141Z,8.50
2019-01-02T09:12:20.360Z,8.40
2019-01-02T09:13:37.217Z,8.30
2019-01-02T09:14:54.537Z,8.10
2019-01-02T09:16:10.976Z,8.10
2019-01-02T09:17:28.052Z,8.00
2019-01-02T09:18:45.130Z,8.00
2019-01-02T09:20:22.488Z,7.90
2019-01-02T09:22:05.724Z,7.90
2019-01-02T09:23:22.205Z,7.80
2019-01-02T09:24:38.732Z,7.80
2019-01-02T09:25:55.244Z,7.80
2019-01-02T09:27:12.407Z,7.70
2019-01-02T09:28:28.788Z,7.70
2019-01-02T09:29:45.175Z,7.70
2019-01-02T09:31:01.598Z,7.80
2019-01-02T09:32:18.430Z,7.90
2019-01-02T09:33:34.822Z,8.00
2019-01-02T09:34:51.366Z,8.10
2019-01-02T09:36:08.162Z,8.20
2019-01-02T09:37:24.996Z,8.30
2019-01-02T09:38:41.806Z,8.50
2019-01-02T09:39:58.224Z,8.60
2019-01-02T09:41:14.637Z,8.60
2019-01-02T09:42:31.297Z,8.50
2019-01-02T09:43:47.623Z,8.50
2019-01-02T09:45:04.801Z,8.50
2019-01-02T09:46:21.133Z,8.40
2019-01-02T09:47:37.648Z,8.40
2019-01-02T09:48:54.097Z,8.20
2019-01-02T09:50:10.696Z,8.20
2019-01-02T09:51:27.205Z,8.10
2019-01-02T09:52:44.437Z,8.10
2019-01-02T09:54:01.385Z,8.10
2019-01-02T09:55:18.500Z,8.10
2019-01-02T09:56:34.981Z,8.10
2019-01-02T09:57:51.377Z,8.10
2019-01-02T09:59:07.968Z,8.10
2019-01-02T10:00:24.869Z,8.10
2019-01-02T10:01:42.060Z,8.10
2019-01-02T10:02:58.884Z,8.20
2019-01-02T10:04:15.575Z,8.10
2019-01-02T10:05:32.274Z,8.00
2019-01-02T10:06:49.161Z,7.90
2019-01-02T10:08:05.949Z,7.80
2019-01-02T10:09:22.985Z,7.60
2019-01-02T10:11:03.073Z,7.50
2019-01-02T10:12:46.249Z,7.40
2019-01-02T10:14:02.705Z,7.20
2019-01-02T10:15:19.820Z,7.00
2019-01-02T10:16:37.057Z,7.00
2019-01-02T10:17:53.390Z,6.90
2019-01-02T10:19:10.518Z,6.90
2019-01-02T10:20:26.901Z,6.90
2019-01-02T10:21:43.246Z,7.10
2019-01-02T10:23:23.707Z,7.20
2019-01-02T10:25:06.879Z,7.40
2019-01-02T10:26:23.876Z,7.70
2019-01-02T10:27:41.069Z,8.00
2019-01-02T10:28:57.400Z,7.90
2019-01-02T10:30:14.360Z,7.80
2019-01-02T10:31:31.517Z,7.80
2019-01-02T10:32:48.153Z,7.60
2019-01-02T10:34:04.537Z,7.50
2019-01-02T10:35:20.927Z,7.40
2019-01-02T10:36:37.450Z,7.40
2019-01-02T10:37:54.361Z,7.30
2019-01-02T10:39:10.936Z,7.20
2019-01-02T10:40:27.910Z,7.10
2019-01-02T10:41:44.916Z,7.00
2019-01-02T10:43:01.776Z,6.90
2019-01-02T10:44:18.528Z,6.90
2019-01-02T10:45:34.977Z,6.80
2019-01-02T10:46:51.378Z,6.80
2019-01-02T10:48:07.700Z,6.80
2019-01-02T10:49:24.841Z,6.80
2019-01-02T10:50:42.032Z,6.80
2019-01-02T10:51:58.696Z,6.70
2019-01-02T10:53:15.517Z,6.60
2019-01-02T10:54:32.470Z,6.60
2019-01-02T10:55:49.596Z,6.50
2019-01-02T10:57:06.128Z,6.50
2019-01-02T10:58:23.405Z,6.40
2019-01-02T10:59:39.897Z,6.40
2019-01-02T11:00:56.889Z,6.50
2019-01-02T11:02:14.091Z,6.50
2019-01-02T11:03:31.081Z,6.50
2019-01-02T11:04:47.438Z,6.50
2019-01-02T11:06:04.188Z,6.60
2019-01-02T11:07:20.941Z,6.60
2019-01-02T11:08:37.300Z,6.70
2019-01-02T11:09:54.322Z,6.80
2019-01-02T11:11:10.893Z,6.80
2019-01-02T11:12:27.396Z,6.90
2019-01-02T11:13:44.006Z,6.90
2019-01-02T11:15:00.354Z,7.00
2019-01-02T11:16:17.002Z,6.90
2019-01-02T11:17:33.908Z,6.90
2019-01-02T11:18:50.501Z,7.00
2019-01-02T11:20:07.441Z,7.00
2019-01-02T11:21:23.751Z,7.00
2019-01-02T11:22:40.808Z,7.10
2019-01-02T11:23:58.105Z,7.10
2019-01-02T11:25:14.612Z,7.00
2019-01-02T11:26:34.298Z,6.90
2019-01-02T11:27:50.736Z,6.80
2019-01-02T11:29:07.062Z,6.80
2019-01-02T11:30:23.439Z,6.70
2019-01-02T11:31:39.885Z,6.60
2019-01-02T11:32:56.441Z,6.60
2019-01-02T11:34:13.672Z,6.60
2019-01-02T11:35:30.209Z,6.60
2019-01-02T11:36:46.624Z,6.60
2019-01-02T11:38:03.213Z,6.60
2019-01-02T11:39:19.629Z,6.50
2019-01-02T11:40:36.170Z,6.50
2019-01-02T11:41:52.785Z,6.50
2019-01-02T11:43:10.137Z,6.50
2019-01-02T11:44:26.614Z,6.50
2019-01-02T11:45:43.290Z,6.50
2019-01-02T11:46:59.654Z,6.50
2019-01-02T11:48:16.424Z,6.40
2019-01-02T11:49:33.509Z,6.40
2019-01-02T11:50:50.047Z,6.40
2019-01-02T11:52:06.860Z,6.40
2019-01-02T11:53:23.234Z,6.40
2019-01-02T11:54:39.729Z,6.40
2019-01-02T11:55:56.363Z,6.40
2019-01-02T11:57:12.855Z,6.40
2019-01-02T11:58:30.032Z,6.50
2019-01-02T11:59:46.553Z,6.40
2019-01-02T12:01:03.757Z,6.50
2019-01-02T12:02:20.266Z,6.50
2019-01-02T12:03:37.108Z,6.50
2019-01-02T12:04:53.703Z,6.60
2019-01-02T12:06:10.412Z,6.60
2019-01-02T12:07:27.576Z,6.60
2019-01-02T12:08:44.372Z,6.60
2019-01-02T12:10:01.450Z,6.70
2019-01-02T12:11:18.417Z,6.70
2019-01-02T12:12:35.016Z,6.70
2019-01-02T12:13:52.716Z,6.70
2019-01-02T12:15:09.045Z,6.60
2019-01-02T12:16:26.096Z,6.60
2019-01-02T12:17:42.697Z,6.70
2019-01-02T12:18:59.022Z,6.70
2019-01-02T12:20:15.500Z,6.70
2019-01-02T12:21:32.187Z,6.80
2019-01-02T12:22:48.484Z,6.90
2019-01-02T12:24:04.965Z,6.90
2019-01-02T12:25:21.927Z,7.00
2019-01-02T12:26:38.520Z,7.10
2019-01-02T12:27:55.111Z,7.10
2019-01-02T12:29:11.502Z,7.30
2019-01-02T12:30:28.378Z,7.30
2019-01-02T12:31:45.110Z,7.40
2019-01-02T12:33:01.410Z,7.50
2019-01-02T12:34:18.652Z,7.60
2019-01-02T12:35:35.341Z,7.60
2019-01-02T12:36:52.553Z,7.60
2019-01-02T12:38:09.605Z,7.40
2019-01-02T12:39:26.444Z,7.40
2019-01-02T12:40:43.449Z,7.20
2019-01-02T12:42:00.328Z,7.20
2019-01-02T12:43:16.805Z,7.10
2019-01-02T12:44:33.260Z,7.10
2019-01-02T12:45:50.137Z,7.10
2019-01-02T12:47:06.480Z,7.00
2019-01-02T12:48:23.293Z,6.90
2019-01-02T12:49:40.213Z,6.80
2019-01-02T12:50:56.644Z,6.80
2019-01-02T12:52:13.109Z,6.80
2019-01-02T12:53:30.549Z,6.70
2019-01-02T12:54:47.071Z,6.60
2019-01-02T12:56:04.097Z,6.50
2019-01-02T12:57:20.377Z,6.30
2019-01-02T12:58:36.837Z,6.10
2019-01-02T12:59:53.876Z,5.90
2019-01-02T13:01:10.393Z,5.70
2019-01-02T13:02:26.827Z,5.70
2019-01-02T13:03:44.036Z,5.50
2019-01-02T13:05:00.578Z,5.50
2019-01-02T13:06:19.728Z,5.40
2019-01-02T13:07:36.257Z,5.40
2019-01-02T13:08:53.385Z,5.40
2019-01-02T13:10:09.636Z,5.40
2019-01-02T13:11:26.241Z,5.40
2019-01-02T13:12:43.396Z,5.40
2019-01-02T13:13:59.729Z,5.40
2019-01-02T13:15:16.080Z,5.50
2019-01-02T13:16:32.561Z,5.50
2019-01-02T13:17:49.680Z,5.60
2019-01-02T13:19:06.343Z,5.60
2019-01-02T13:20:23.472Z,5.70
2019-01-02T13:21:40.628Z,5.70
2019-01-02T13:24:58.286Z,5.80
2019-01-02T13:26:14.565Z,5.90
2019-01-02T13:27:31.909Z,5.90
2019-01-02T13:28:48.883Z,5.90
2019-01-02T13:30:05.381Z,6.00
2019-01-02T13:31:22.456Z,6.00
2019-01-02T13:32:40.333Z,6.10
2019-01-02T13:33:57.358Z,6.20
2019-01-02T13:35:13.865Z,6.20
2019-01-02T13:36:30.554Z,6.20
2019-01-02T13:37:47.407Z,6.10
2019-01-02T13:39:04.385Z,6.00
2019-01-02T13:40:21.185Z,6.00
2019-01-02T13:41:37.730Z,6.00
2019-01-02T13:42:54.196Z,6.00
2019-01-02T13:44:10.520Z,5.90
2019-01-02T13:45:27.367Z,5.90
2019-01-02T13:46:43.775Z,5.80
2019-01-02T13:48:01.048Z,5.70
2019-01-02T13:49:18.009Z,5.70
2019-01-02T13:50:34.497Z,5.60
2019-01-02T13:51:51.657Z,5.50
2019-01-02T13:53:08.033Z,5.50
2019-01-02T13:54:24.641Z,5.50
2019-01-02T13:55:41.392Z,5.50
2019-01-02T13:56:57.644Z,5.50
2019-01-02T13:58:14.241Z,5.60
2019-01-02T13:59:31.861Z,5.60
2019-01-02T14:00:48.628Z,5.70
2019-01-02T14:02:05.478Z,5.70
2019-01-02T14:03:20.736Z,5.70
2019-01-02T14:04:45.712Z,5.70
2019-01-02T14:06:02.065Z,5.80
2019-01-02T14:07:18.501Z,5.70
2019-01-02T14:08:35.093Z,5.60
2019-01-02T14:09:51.953Z,5.60
2019-01-02T14:11:08.361Z,5.60
2019-01-02T14:12:25.559Z,5.50
2019-01-02T14:13:42.044Z,5.50
2019-01-02T14:14:58.908Z,5.50
2019-01-02T14:16:15.257Z,5.40
2019-01-02T14:17:31.816Z,5.50
2019-01-02T14:18:48.185Z,5.40
2019-01-02T14:20:05.056Z,5.40
2019-01-02T14:21:21.621Z,5.40
2019-01-02T14:22:37.909Z,5.40
2019-01-02T14:23:54.612Z,5.40
2019-01-02T14:25:11.711Z,5.40
2019-01-02T14:26:28.913Z,5.30
2019-01-02T14:27:46.201Z,5.30
2019-01-02T14:29:03.366Z,5.30
2019-01-02T14:30:20.277Z,5.20
2019-01-02T14:31:38.768Z,5.20
2019-01-02T14:32:55.954Z,5.20
2019-01-02T14:34:13.332Z,5.10
2019-01-02T14:35:30.011Z,5.10
2019-01-02T14:36:46.312Z,5.10
2019-01-02T14:38:02.922Z,5.10
2019-01-02T14:39:19.866Z,5.10
2019-01-02T14:40:36.290Z,5.00
2019-01-02T14:41:52.950Z,5.00
2019-01-02T14:43:09.353Z,5.10
2019-01-02T14:44:25.811Z,5.00
2019-01-02T14:45:42.220Z,5.00
2019-01-02T14:46:58.792Z,5.00
2019-01-02T14:48:15.612Z,5.00
2019-01-02T14:49:32.238Z,5.00
2019-01-02T14:50:48.828Z,5.00
2019-01-02T14:52:05.625Z,5.00
2019-01-02T14:53:22.808Z,5.00
2019-01-02T14:54:39.333Z,5.00
2019-01-02T14:55:56.085Z,5.10
2019-01-02T14:57:12.587Z,5.10
2019-01-02T14:58:28.940Z,5.20
2019-01-02T14:59:48.120Z,5.20
2019-01-02T15:01:04.492Z,5.20
2019-01-02T15:02:21.649Z,5.20
2019-01-02T15:03:38.129Z,5.30
2019-01-02T15:04:55.310Z,5.30
2019-01-02T15:06:11.746Z,5.30
2019-01-02T15:07:28.397Z,5.30
2019-01-02T15:08:44.742Z,5.30
2019-01-02T15:10:01.253Z,5.30
2019-01-02T15:11:17.542Z,5.30
2019-01-02T15:12:34.208Z,5.30
2019-01-02T15:13:50.719Z,5.20
2019-01-02T15:15:07.236Z,5.20
2019-01-02T15:16:23.995Z,5.10
2019-01-02T15:17:40.538Z,5.10
2019-01-02T15:18:57.370Z,5.10
2019-01-02T15:20:14.280Z,5.00
2019-01-02T15:21:30.764Z,5.00
2019-01-02T15:22:47.076Z,5.00
2019-01-02T15:24:03.705Z,4.90
2019-01-02T15:25:20.496Z,4.90
2019-01-02T15:26:37.004Z,4.90
2019-01-02T15:27:57.437Z,4.80
2019-01-02T15:29:14.158Z,4.80
2019-01-02T15:30:30.945Z,4.70
2019-01-02T15:31:47.532Z,4.70
2019-01-02T15:33:03.788Z,4.70
2019-01-02T15:34:20.292Z,4.70
2019-01-02T15:35:36.794Z,4.60
2019-01-02T15:36:53.156Z,4.60
2019-01-02T15:38:09.787Z,4.60
2019-01-02T15:39:26.173Z,4.50
2019-01-02T15:40:42.588Z,4.50
2019-01-02T15:41:58.933Z,4.50
2019-01-02T15:43:15.305Z,4.50
2019-01-02T15:44:31.840Z,4.50
2019-01-02T15:45:48.146Z,4.50
2019-01-02T15:47:08.546Z,4.50
2019-01-02T15:48:24.163Z,4.50
2019-01-02T15:49:40.656Z,4.40
2019-01-02T15:50:58.724Z,4.40
2019-01-02T15:52:13.973Z,4.40
2019-01-02T15:53:38.158Z,4.30
2019-01-02T15:54:54.927Z,4.30
2019-01-02T15:56:11.356Z,4.30
2019-01-02T15:57:27.704Z,4.20
2019-01-02T15:58:44.109Z,4.20
2019-01-02T16:00:00.505Z,4.20
2019-01-02T16:01:16.941Z,4.10
2019-01-02T16:02:33.781Z,4.10
2019-01-02T16:03:50.194Z,4.10
2019-01-02T16:05:06.485Z,4.00
2019-01-02T16:06:22.853Z,4.00
2019-01-02T16:07:39.344Z,4.00
2019-01-02T16:08:55.901Z,3.90
2019-01-02T16:10:13.219Z,3.90
2019-01-02T16:11:29.938Z,3.90
2019-01-02T16:12:47.508Z,3.80
2019-01-02T16:14:04.313Z,3.80
2019-01-02T16:15:20.925Z,3.80
2019-01-02T16:16:37.514Z,3.80
2019-01-02T16:17:53.969Z,3.80
2019-01-02T16:19:11.089Z,3.80
2019-01-02T16:20:27.708Z,3.90
2019-01-02T16:21:44.145Z,3.90
2019-01-02T16:23:00.840Z,3.90
2019-01-02T16:24:17.415Z,3.90
2019-01-02T16:25:34.573Z,3.90
2019-01-02T16:26:50.932Z,3.90
2019-01-02T16:28:07.193Z,4.00
2019-01-02T16:29:23.622Z,4.00
2019-01-02T16:30:40.362Z,4.00
2019-01-02T16:31:56.634Z,4.00
2019-01-02T16:33:13.286Z,4.00
2019-01-02T16:34:29.745Z,4.00
2019-01-02T16:35:46.414Z,4.00
2019-01-02T16:37:03.761Z,4.00